createdAt,value
2018-01-23T00:00:10.928Z,49.10
2018-01-23T00:02:38.616Z,43.87
2018-01-23T00:05:06.233Z,39.75
2018-01-23T00:07:33.855Z,50.67
2018-01-23T00:10:01.505Z,56.70
2018-01-23T00:12:29.881Z,63.75
2018-01-23T00:14:57.493Z,52.97
2018-01-23T00:17:25.139Z,62.50
2018-01-23T00:19:53.525Z,58.40
2018-01-23T00:22:21.146Z,52.60
2018-01-23T00:24:48.792Z,47.03
2018-01-23T00:27:17.222Z,60.83
2018-01-23T00:29:44.808Z,68.72
2018-01-23T00:32:12.458Z,59.38
2018-01-23T00:34:40.070Z,43.55
2018-01-23T00:37:07.682Z,48.17
2018-01-23T00:39:36.094Z,50.63
2018-01-23T00:42:03.701Z,45.72
2018-01-23T00:44:31.326Z,48.03
2018-01-23T00:46:58.973Z,47.05
2018-01-23T00:49:26.584Z,36.80
2018-01-23T00:51:54.209Z,41.47
2018-01-23T00:54:21.863Z,54.20
2018-01-23T00:56:49.485Z,39.58
2018-01-23T00:59:17.878Z,35.15
2018-01-23T01:01:46.289Z,37.35
2018-01-23T01:04:13.898Z,40.47
2018-01-23T01:06:41.513Z,39.10
2018-01-23T01:09:09.929Z,40.15
2018-01-23T01:11:37.575Z,34.60
2018-01-23T01:14:05.958Z,35.92
2018-01-23T01:16:33.601Z,54.50
2018-01-23T01:19:01.214Z,54.05
2018-01-23T01:21:29.593Z,56.88
2018-01-23T01:23:57.232Z,71.00
2018-01-23T01:26:24.855Z,45.85
2018-01-23T01:28:53.236Z,39.55
2018-01-23T01:31:20.872Z,64.55
2018-01-23T01:33:48.480Z,75.97
2018-01-23T01:36:16.097Z,68.12
2018-01-23T01:38:43.744Z,64.18
2018-01-23T01:41:12.120Z,68.47
2018-01-23T01:43:39.729Z,64.40
2018-01-23T01:46:07.386Z,64.72
2018-01-23T01:48:53.485Z,64.18
2018-01-23T01:51:21.125Z,60.35
2018-01-23T01:53:48.732Z,56.63
2018-01-23T01:56:16.344Z,49.95
2018-01-23T01:58:43.983Z,49.75
2018-01-23T02:01:12.380Z,38.08
2018-01-23T02:03:40.766Z,51.83
2018-01-23T02:06:09.172Z,46.60
2018-01-23T02:08:37.553Z,53.63
2018-01-23T02:11:05.928Z,53.13
2018-01-23T02:13:33.569Z,54.00
2018-01-23T02:16:01.177Z,59.38
2018-01-23T02:18:28.792Z,57.08
2018-01-23T02:20:56.449Z,56.50
2018-01-23T02:23:24.834Z,56.55
2018-01-23T02:25:53.209Z,62.83
2018-01-23T02:28:20.876Z,57.78
2018-01-23T02:30:48.494Z,54.92
2018-01-23T02:33:16.105Z,66.47
2018-01-23T02:35:43.756Z,62.88
2018-01-23T02:38:11.366Z,63.03
2018-01-23T02:40:38.981Z,69.53
2018-01-23T02:43:06.637Z,75.00
2018-01-23T02:45:35.017Z,59.85
2018-01-23T02:48:02.634Z,56.08
2018-01-23T02:50:30.278Z,66.82
2018-01-23T02:52:58.657Z,67.95
2018-01-23T02:55:26.273Z,65.93
2018-01-23T02:57:53.917Z,57.10
2018-01-23T03:00:22.296Z,49.88
2018-01-23T03:02:49.914Z,36.22
2018-01-23T03:05:17.609Z,54.03
2018-01-23T03:07:45.218Z,58.53
2018-01-23T03:10:12.827Z,65.07
2018-01-23T03:12:40.469Z,40.08
2018-01-23T03:15:08.076Z,63.90
2018-01-23T03:17:35.692Z,64.70
2018-01-23T03:20:03.333Z,53.35
2018-01-23T03:22:30.945Z,51.40
2018-01-23T03:24:58.553Z,43.63
2018-01-23T03:27:26.957Z,48.08
2018-01-23T03:29:55.333Z,59.33
2018-01-23T03:32:23.717Z,57.55
2018-01-23T03:34:51.365Z,37.58
2018-01-23T03:37:18.980Z,57.50
2018-01-23T03:39:47.396Z,44.33
2018-01-23T03:42:15.052Z,31.98
2018-01-23T03:44:43.433Z,63.03
2018-01-23T03:47:11.812Z,35.22
2018-01-23T03:49:39.454Z,49.72
2018-01-23T03:52:07.069Z,44.85
2018-01-23T03:54:35.441Z,55.17
2018-01-23T03:57:03.082Z,57.05
2018-01-23T03:59:30.697Z,27.08
2018-01-23T04:01:58.323Z,30.77
2018-01-23T04:04:25.962Z,29.35
2018-01-23T04:06:54.339Z,37.92
2018-01-23T04:09:21.965Z,24.27
2018-01-23T04:11:49.612Z,42.00
2018-01-23T04:14:17.232Z,24.08
2018-01-23T04:16:44.848Z,25.27
2018-01-23T04:19:13.252Z,27.35
2018-01-23T04:21:41.629Z,20.65
2018-01-23T04:24:10.000Z,22.42
2018-01-23T04:26:37.654Z,30.65
2018-01-23T04:29:05.275Z,32.50
2018-01-23T04:31:33.653Z,24.30
2018-01-23T04:34:02.079Z,22.15
2018-01-23T04:36:29.700Z,18.30
2018-01-23T04:38:57.305Z,32.85
2018-01-23T04:41:25.721Z,18.75
2018-01-23T04:43:53.332Z,33.65
2018-01-23T04:46:20.945Z,20.40
2018-01-23T04:48:49.353Z,25.17
2018-01-23T04:51:16.968Z,23.98
2018-01-23T04:53:44.585Z,22.13
2018-01-23T04:56:13.005Z,20.25
2018-01-23T04:58:40.616Z,22.55
2018-01-23T05:01:08.233Z,18.15
2018-01-23T05:03:36.646Z,17.25
2018-01-23T05:06:04.256Z,15.00
2018-01-23T05:08:31.870Z,15.60
2018-01-23T05:11:00.277Z,15.35
2018-01-23T05:13:27.885Z,15.23
2018-01-23T05:15:55.489Z,12.32
2018-01-23T05:18:23.143Z,10.27
2018-01-23T05:20:50.744Z,9.15
2018-01-23T05:23:19.120Z,13.98
2018-01-23T05:25:46.762Z,10.50
2018-01-23T05:28:14.369Z,14.25
2018-01-23T05:30:41.976Z,10.43
2018-01-23T05:33:09.613Z,13.13
2018-01-23T05:35:37.230Z,11.07
2018-01-23T05:38:04.843Z,7.78
2018-01-23T05:40:32.472Z,7.65
2018-01-23T05:43:00.857Z,9.10
2018-01-23T05:45:29.246Z,6.87
2018-01-23T05:47:56.927Z,10.40
2018-01-23T05:50:24.589Z,5.43
2018-01-23T05:52:52.289Z,7.10
2018-01-23T05:55:20.698Z,8.55
2018-01-23T05:57:48.317Z,11.00
2018-01-23T06:00:15.928Z,7.50
2018-01-23T06:02:44.338Z,9.45
2018-01-23T06:05:11.946Z,10.82
2018-01-23T06:07:39.570Z,10.23
2018-01-23T06:10:07.223Z,6.82
2018-01-23T06:12:35.598Z,10.65
2018-01-23T06:15:03.218Z,8.88
2018-01-23T06:17:30.904Z,6.40
2018-01-23T06:19:58.518Z,10.35
2018-01-23T06:22:26.122Z,12.43
2018-01-23T06:24:54.529Z,10.10
2018-01-23T06:27:22.134Z,7.72
2018-01-23T06:29:49.915Z,10.23
2018-01-23T06:32:17.569Z,7.90
2018-01-23T06:34:49.574Z,12.68
2018-01-23T06:37:17.228Z,11.57
2018-01-23T06:39:44.828Z,8.30
2018-01-23T06:42:12.443Z,7.90
2018-01-23T06:44:40.848Z,12.68
2018-01-23T06:47:08.458Z,13.77
2018-01-23T06:49:36.082Z,11.77
2018-01-23T06:52:04.509Z,10.15
2018-01-23T06:54:32.146Z,16.58
2018-01-23T06:57:00.532Z,16.70
2018-01-23T06:59:28.954Z,10.15
2018-01-23T07:01:56.552Z,9.13
2018-01-23T07:04:24.205Z,7.95
2018-01-23T07:06:51.899Z,19.45
2018-01-23T07:09:19.496Z,8.63
2018-01-23T07:11:47.105Z,8.85
2018-01-23T07:14:15.509Z,12.73
2018-01-23T07:16:43.121Z,10.68
2018-01-23T07:19:10.790Z,15.43
2018-01-23T07:21:38.433Z,13.90
2018-01-23T07:24:06.037Z,11.68
2018-01-23T07:26:33.645Z,14.55
2018-01-23T07:29:01.278Z,11.18
2018-01-23T07:31:28.877Z,9.02
2018-01-23T07:33:56.496Z,20.77
2018-01-23T07:36:24.133Z,13.90
2018-01-23T07:38:51.748Z,10.60
2018-01-23T07:41:19.366Z,15.73
2018-01-23T07:43:47.009Z,21.50
2018-01-23T07:46:14.699Z,16.17
2018-01-23T07:48:42.309Z,19.92
2018-01-23T07:51:10.049Z,36.05
2018-01-23T07:53:37.725Z,30.58
2018-01-23T07:56:05.340Z,28.33
2018-01-23T07:58:33.754Z,50.42
2018-01-23T08:01:01.369Z,61.22
2018-01-23T08:03:28.976Z,58.90
2018-01-23T08:05:57.394Z,54.45
2018-01-23T08:08:25.013Z,52.35
2018-01-23T08:10:52.634Z,57.97
2018-01-23T08:13:20.290Z,38.60
2018-01-23T08:15:48.851Z,62.08
2018-01-23T08:18:16.461Z,44.38
2018-01-23T08:20:44.873Z,55.80
2018-01-23T08:23:12.491Z,50.12
2018-01-23T08:25:40.101Z,45.03
2018-01-23T08:28:08.513Z,41.58
2018-01-23T08:30:36.123Z,44.40
2018-01-23T08:33:03.739Z,31.92
2018-01-23T08:35:32.145Z,47.83
2018-01-23T08:38:00.525Z,45.78
2018-01-23T08:40:28.901Z,32.75
2018-01-23T08:42:56.551Z,39.17
2018-01-23T08:45:24.160Z,32.88
2018-01-23T08:47:51.774Z,45.85
2018-01-23T08:50:19.426Z,28.40
2018-01-23T08:52:47.033Z,27.85
2018-01-23T08:55:14.640Z,39.03
2018-01-23T08:57:42.331Z,35.80
2018-01-23T09:00:09.938Z,34.13
2018-01-23T09:02:37.557Z,38.88
2018-01-23T09:05:05.201Z,40.10
2018-01-23T09:07:32.813Z,31.77
2018-01-23T09:10:00.460Z,46.08
2018-01-23T09:12:28.105Z,35.20
2018-01-23T09:14:55.716Z,54.53
2018-01-23T09:17:23.324Z,48.53
2018-01-23T09:19:51.729Z,33.75
2018-01-23T09:22:20.168Z,33.03
2018-01-23T09:24:47.776Z,44.55
2018-01-23T09:27:16.191Z,39.72
2018-01-23T09:29:44.570Z,41.50
2018-01-23T09:32:12.946Z,39.42
2018-01-23T09:34:40.588Z,26.90
2018-01-23T09:37:08.192Z,31.10
2018-01-23T09:39:35.810Z,26.92
2018-01-23T09:42:03.620Z,30.48
2018-01-23T09:44:31.233Z,38.83
2018-01-23T09:46:59.613Z,36.38
2018-01-23T09:49:27.257Z,42.17
2018-01-23T09:51:54.865Z,25.67
2018-01-23T09:54:23.241Z,42.08
2018-01-23T09:56:50.877Z,43.67
2018-01-23T09:59:18.494Z,42.35
2018-01-23T10:01:46.120Z,40.55
2018-01-23T10:04:13.761Z,42.20
2018-01-23T10:06:42.142Z,46.55
2018-01-23T10:09:09.757Z,40.63
2018-01-23T10:11:37.406Z,49.08
2018-01-23T10:14:05.846Z,47.20
2018-01-23T10:16:33.458Z,39.33
2018-01-23T10:19:01.096Z,37.17
2018-01-23T10:21:28.704Z,44.13
2018-01-23T10:23:57.085Z,36.67
2018-01-23T10:26:24.734Z,40.35
2018-01-23T10:28:52.411Z,39.15
2018-01-23T10:31:20.021Z,37.25
2018-01-23T10:33:48.432Z,35.65
2018-01-23T10:36:16.814Z,41.67
2018-01-23T10:38:45.205Z,47.33
2018-01-23T10:41:13.648Z,42.92
2018-01-23T10:43:41.272Z,37.10
2018-01-23T10:46:09.688Z,36.80
2018-01-23T10:48:37.364Z,48.17
2018-01-23T10:51:04.972Z,34.67
2018-01-23T10:53:32.584Z,27.33
2018-01-23T10:56:00.997Z,42.15
2018-01-23T10:58:28.614Z,31.92
2018-01-23T11:01:01.904Z,34.85
2018-01-23T11:03:29.513Z,44.25
2018-01-23T11:05:57.133Z,41.67
2018-01-23T11:08:24.777Z,31.58
2018-01-23T11:10:53.154Z,43.92
2018-01-23T11:13:20.762Z,40.80
2018-01-23T11:15:48.406Z,26.95
2018-01-23T11:18:16.016Z,38.72
2018-01-23T11:20:43.624Z,33.42
2018-01-23T11:23:11.273Z,40.25
2018-01-23T11:25:38.889Z,27.13
2018-01-23T11:28:06.506Z,24.40
2018-01-23T11:30:34.153Z,33.20
2018-01-23T11:33:01.773Z,24.30
2018-01-23T11:35:29.384Z,32.13
2018-01-23T11:37:57.033Z,35.35
2018-01-23T11:40:24.649Z,27.42
2018-01-23T11:42:52.261Z,28.77
2018-01-23T11:45:19.901Z,28.25
2018-01-23T11:47:47.515Z,36.05
2018-01-23T11:50:15.145Z,29.58
2018-01-23T11:52:43.273Z,37.63
2018-01-23T11:55:10.890Z,34.75
2018-01-23T11:57:38.542Z,32.75
2018-01-23T12:00:06.187Z,28.80
2018-01-23T12:02:33.803Z,33.05
2018-01-23T12:05:01.414Z,26.42
2018-01-23T12:07:29.061Z,42.85
2018-01-23T12:09:56.680Z,38.15
2018-01-23T12:12:24.293Z,37.97
2018-01-23T12:14:51.954Z,32.70
2018-01-23T12:17:19.566Z,39.50
2018-01-23T12:19:47.185Z,28.62
2018-01-23T12:22:14.841Z,41.10
2018-01-23T12:24:42.460Z,37.70
2018-01-23T12:27:10.108Z,35.00
2018-01-23T12:29:37.745Z,42.25
2018-01-23T12:32:06.125Z,28.85
2018-01-23T12:34:33.737Z,36.95
2018-01-23T12:37:01.393Z,36.75
2018-01-23T12:39:29.016Z,34.92
2018-01-23T12:41:56.632Z,42.13
2018-01-23T12:44:25.053Z,37.35
2018-01-23T12:46:52.665Z,40.55
2018-01-23T12:49:20.282Z,60.28
2018-01-23T12:51:48.694Z,46.30
2018-01-23T12:54:16.308Z,44.65
2018-01-23T12:56:43.920Z,38.58
2018-01-23T12:59:12.336Z,35.65
2018-01-23T13:01:39.952Z,30.15
2018-01-23T13:04:07.563Z,32.28
2018-01-23T13:06:35.981Z,46.65
2018-01-23T13:09:03.598Z,42.17
2018-01-23T13:11:31.605Z,29.75
2018-01-23T13:13:59.285Z,29.65
2018-01-23T13:16:27.664Z,29.05
2018-01-23T13:18:56.039Z,31.48
2018-01-23T13:21:23.703Z,29.95
2018-01-23T13:23:51.313Z,27.70
2018-01-23T13:26:19.701Z,23.23
2018-01-23T13:28:48.113Z,28.83
2018-01-23T13:31:15.725Z,24.58
2018-01-23T13:33:43.337Z,26.95
2018-01-23T13:36:11.752Z,29.48
2018-01-23T13:38:39.364Z,30.05
2018-01-23T13:41:06.974Z,30.35
2018-01-23T13:43:35.388Z,30.37
2018-01-23T13:46:02.997Z,26.00
2018-01-23T13:48:30.610Z,28.15
2018-01-23T13:50:58.252Z,32.13
2018-01-23T13:53:25.866Z,27.52
2018-01-23T13:55:54.246Z,33.67
2018-01-23T13:58:21.891Z,25.37
2018-01-23T14:00:49.517Z,25.62
2018-01-23T14:03:17.892Z,26.80
2018-01-23T14:05:46.305Z,26.10
2018-01-23T14:08:13.937Z,24.98
2018-01-23T14:10:41.594Z,23.67
2018-01-23T14:13:09.239Z,30.23
2018-01-23T14:15:36.941Z,28.70
2018-01-23T14:18:04.549Z,29.30
2018-01-23T14:20:32.212Z,27.25
2018-01-23T14:22:59.841Z,22.30
2018-01-23T14:25:27.460Z,25.80
2018-01-23T14:27:55.117Z,21.52
2018-01-23T14:30:22.729Z,24.12
2018-01-23T14:32:51.113Z,23.77
2018-01-23T14:35:18.774Z,32.00
2018-01-23T14:37:46.389Z,25.60
2018-01-23T14:40:13.993Z,27.80
2018-01-23T14:42:41.644Z,20.23
2018-01-23T14:45:09.257Z,19.87
2018-01-23T14:47:36.878Z,25.40
2018-01-23T14:50:04.596Z,23.23
2018-01-23T14:52:32.213Z,29.17
2018-01-23T14:55:00.597Z,26.87
2018-01-23T14:57:28.237Z,28.70
2018-01-23T15:02:29.909Z,20.73
2018-01-23T15:04:57.530Z,20.55
2018-01-23T15:07:25.140Z,17.02
2018-01-23T15:09:52.811Z,21.12
2018-01-23T15:12:21.264Z,19.62
2018-01-23T15:14:48.926Z,19.77
2018-01-23T15:17:16.581Z,17.85
2018-01-23T15:19:44.192Z,27.48
2018-01-23T15:22:11.800Z,24.27
2018-01-23T15:24:40.229Z,26.15
2018-01-23T15:27:07.848Z,22.42
2018-01-23T15:29:35.456Z,25.85
2018-01-23T15:32:03.101Z,21.20
2018-01-23T15:34:31.477Z,25.98
2018-01-23T15:36:59.100Z,35.83
2018-01-23T15:39:26.803Z,22.23
2018-01-23T15:41:54.417Z,27.05
2018-01-23T15:44:22.795Z,22.52
2018-01-23T15:46:50.442Z,20.88
2018-01-23T15:49:18.060Z,23.33
2018-01-23T15:51:46.436Z,21.10
2018-01-23T15:54:14.081Z,21.20
2018-01-23T15:56:41.692Z,22.73
2018-01-23T15:59:09.304Z,18.85
2018-01-23T16:01:36.965Z,20.27
2018-01-23T16:04:04.574Z,25.98
2018-01-23T16:06:32.194Z,19.60
2018-01-23T16:09:00.605Z,19.87
2018-01-23T16:11:29.229Z,21.55
2018-01-23T16:13:56.855Z,19.40
2018-01-23T16:16:25.269Z,24.58
2018-01-23T16:18:52.883Z,17.70
2018-01-23T16:21:23.094Z,31.05
2018-01-23T16:23:50.732Z,20.75
2018-01-23T16:26:19.122Z,22.42
2018-01-23T16:28:47.509Z,21.10
2018-01-23T16:31:19.986Z,25.90
2018-01-23T16:33:47.623Z,21.23
2018-01-23T16:36:19.000Z,19.00
2018-01-23T16:38:46.653Z,23.75
2018-01-23T16:41:14.285Z,21.48
2018-01-23T16:43:42.745Z,27.70
2018-01-23T16:46:11.167Z,23.27
2018-01-23T16:48:41.553Z,16.27
2018-01-23T16:51:10.064Z,19.75
2018-01-23T16:53:37.942Z,19.92
2018-01-23T16:56:07.681Z,23.70
2018-01-23T16:58:36.658Z,24.45
2018-01-23T17:01:04.656Z,22.85
2018-01-23T17:03:32.273Z,23.83
2018-01-23T17:06:00.698Z,18.83
2018-01-23T17:08:29.052Z,26.45
2018-01-23T17:10:57.462Z,20.10
2018-01-23T17:13:26.798Z,18.67
2018-01-23T17:15:54.414Z,22.17
2018-01-23T17:18:23.847Z,20.10
2018-01-23T17:20:52.279Z,18.40
2018-01-23T17:23:19.908Z,18.80
2018-01-23T17:25:47.520Z,17.85
2018-01-23T17:28:15.166Z,19.17
2018-01-23T17:30:43.600Z,17.17
2018-01-23T17:33:13.409Z,16.02
2018-01-23T17:35:41.289Z,16.87
2018-01-23T17:38:09.238Z,24.30
2018-01-23T17:40:37.630Z,17.50
2018-01-23T17:43:08.294Z,17.05
2018-01-23T17:45:35.921Z,16.08
2018-01-23T17:48:03.540Z,17.17
2018-01-23T17:50:32.192Z,20.60
2018-01-23T17:53:00.337Z,19.92
2018-01-23T17:55:27.956Z,20.90
2018-01-23T17:57:55.602Z,20.67
2018-01-23T18:00:40.801Z,22.08
2018-01-23T18:03:09.481Z,18.02
2018-01-23T18:05:37.184Z,20.52
2018-01-23T18:08:04.825Z,18.67
2018-01-23T18:10:32.486Z,19.35
2018-01-23T18:13:00.122Z,20.73
2018-01-23T18:15:27.881Z,19.37
2018-01-23T18:17:55.532Z,19.87
2018-01-23T18:20:23.154Z,20.73
2018-01-23T18:22:50.986Z,15.65
2018-01-23T18:25:18.642Z,20.62
2018-01-23T18:27:46.258Z,17.52
2018-01-23T18:30:13.871Z,25.92
2018-01-23T18:32:42.289Z,18.52
2018-01-23T18:35:09.905Z,20.08
2018-01-23T18:37:37.517Z,21.05
2018-01-23T18:40:05.929Z,17.33
2018-01-23T18:42:33.550Z,15.73
2018-01-23T18:45:01.170Z,16.20
2018-01-23T18:47:28.853Z,18.48
2018-01-23T18:49:56.474Z,17.30
2018-01-23T18:52:24.135Z,19.70
2018-01-23T18:54:51.796Z,20.45
2018-01-23T18:57:19.421Z,17.05
2018-01-23T18:59:47.801Z,17.65
2018-01-23T19:02:15.448Z,21.05
2018-01-23T19:04:43.090Z,18.95
2018-01-23T19:07:10.710Z,19.05
2018-01-23T19:09:38.361Z,19.50
2018-01-23T19:12:05.976Z,19.77
2018-01-23T19:14:33.593Z,18.23
2018-01-23T19:17:01.244Z,16.70
2018-01-23T19:19:29.640Z,19.85
2018-01-23T19:21:57.253Z,17.08
2018-01-23T19:24:24.901Z,16.10
2018-01-23T19:26:52.522Z,17.60
2018-01-23T19:29:20.146Z,18.23
2018-01-23T19:31:47.823Z,21.17
2018-01-23T19:34:15.433Z,15.52
2018-01-23T19:36:43.046Z,17.92
2018-01-23T19:39:11.513Z,15.70
2018-01-23T19:41:39.121Z,18.80
2018-01-23T19:44:07.496Z,21.62
2018-01-23T19:46:35.338Z,13.43
2018-01-23T19:49:02.949Z,14.00
2018-01-23T19:51:31.325Z,15.35
2018-01-23T19:53:58.980Z,16.70
2018-01-23T19:56:26.633Z,14.87
2018-01-23T19:58:54.262Z,15.40
2018-01-23T20:01:21.904Z,14.80
2018-01-23T20:03:49.514Z,15.63
2018-01-23T20:06:17.968Z,16.80
2018-01-23T20:08:45.620Z,15.18
2018-01-23T20:11:13.241Z,13.65
2018-01-23T20:13:40.852Z,14.93
2018-01-23T20:16:08.505Z,17.20
2018-01-23T20:18:36.893Z,16.90
2018-01-23T20:21:05.270Z,17.15
2018-01-23T20:23:32.919Z,13.45
2018-01-23T20:26:00.595Z,13.75
2018-01-23T20:28:28.207Z,14.15
2018-01-23T20:30:56.625Z,13.02
2018-01-23T20:33:24.237Z,12.85
2018-01-23T20:35:51.859Z,13.25
2018-01-23T20:38:20.286Z,13.45
2018-01-23T20:40:47.977Z,14.93
2018-01-23T20:43:15.593Z,12.90
2018-01-23T20:45:44.045Z,13.75
2018-01-23T20:48:11.662Z,12.07
2018-01-23T20:50:40.034Z,10.88
2018-01-23T20:53:07.678Z,12.35
2018-01-23T20:55:35.316Z,11.27
2018-01-23T20:58:03.685Z,14.18
2018-01-23T21:00:32.504Z,11.07
2018-01-23T21:03:00.882Z,9.05
2018-01-23T21:05:28.490Z,8.20
2018-01-23T21:07:56.134Z,9.68
2018-01-23T21:10:24.733Z,10.40
2018-01-23T21:12:53.113Z,10.10
2018-01-23T21:15:20.774Z,12.68
2018-01-23T21:17:48.427Z,19.05
2018-01-23T21:20:16.046Z,17.80
2018-01-23T21:22:44.684Z,12.45
2018-01-23T21:25:12.293Z,11.85
2018-01-23T21:27:39.936Z,10.10
2018-01-23T21:30:08.293Z,13.88
2018-01-23T21:32:36.110Z,8.70
2018-01-23T21:35:03.717Z,9.40
2018-01-23T21:37:31.349Z,11.90
2018-01-23T21:39:59.038Z,12.35
2018-01-23T21:42:26.642Z,8.77
2018-01-23T21:44:54.281Z,14.25
2018-01-23T21:47:21.909Z,10.40
2018-01-23T21:49:50.289Z,11.07
2018-01-23T21:52:18.233Z,7.00
2018-01-23T21:54:45.836Z,7.85
2018-01-23T21:57:13.480Z,9.13
2018-01-23T21:59:41.212Z,8.32
2018-01-23T22:02:09.585Z,8.85
2018-01-23T22:04:37.213Z,6.07
2018-01-23T22:07:04.857Z,8.38
2018-01-23T22:09:33.237Z,9.35
2018-01-23T22:12:01.621Z,11.32
2018-01-23T22:14:30.026Z,9.77
2018-01-23T22:16:58.413Z,6.87
2018-01-23T22:19:26.790Z,6.35
2018-01-23T22:21:55.212Z,5.47
2018-01-23T22:24:22.829Z,5.30
2018-01-23T22:26:50.450Z,8.07
2018-01-23T22:29:18.888Z,6.40
2018-01-23T22:31:46.518Z,8.95
2018-01-23T22:34:14.890Z,7.07
2018-01-23T22:36:42.532Z,9.95
2018-01-23T22:39:10.194Z,9.50
2018-01-23T22:41:37.797Z,10.00
2018-01-23T22:44:05.442Z,10.00
2018-01-23T22:46:33.052Z,14.20
2018-01-23T22:49:00.656Z,9.35
2018-01-23T22:51:28.321Z,12.98
2018-01-23T22:53:56.715Z,14.27
2018-01-23T22:56:24.373Z,11.02
2018-01-23T22:58:52.033Z,12.98
2018-01-23T23:01:19.637Z,14.73
2018-01-23T23:03:48.021Z,15.80
2018-01-23T23:06:16.430Z,12.07
2018-01-23T23:08:44.042Z,12.43
2018-01-23T23:11:11.652Z,13.18
2018-01-23T23:13:39.300Z,11.90
2018-01-23T23:16:06.916Z,13.85
2018-01-23T23:18:35.288Z,11.55
2018-01-23T23:21:02.940Z,14.10
2018-01-23T23:23:30.552Z,12.65
2018-01-23T23:25:58.930Z,14.48
2018-01-23T23:28:26.566Z,11.63
2018-01-23T23:30:54.247Z,12.43
2018-01-23T23:33:21.853Z,9.90
2018-01-23T23:35:49.507Z,13.20
2018-01-23T23:38:17.121Z,13.27
2018-01-23T23:40:44.753Z,17.55
2018-01-23T23:43:12.412Z,12.52
2018-01-23T23:45:40.041Z,15.57
2018-01-23T23:48:08.435Z,12.82
2018-01-23T23:50:36.844Z,13.65
2018-01-23T23:53:04.462Z,14.05
2018-01-23T23:55:32.081Z,12.50
2018-01-23T23:57:59.725Z,14.40
